createdAt,value
2023-03-20T00:02:26.486Z,40.30
2023-03-20T00:04:54.940Z,40.10
2023-03-20T00:07:23.455Z,40.10
2023-03-20T00:09:51.989Z,40.10
2023-03-20T00:12:26.344Z,40.30
2023-03-20T00:14:54.882Z,40.30
2023-03-20T00:17:23.404Z,40.40
2023-03-20T00:19:51.941Z,40.40
2023-03-20T00:22:20.743Z,40.60
2023-03-20T00:24:49.078Z,40.70
2023-03-20T00:27:18.950Z,40.80
2023-03-20T00:29:49.603Z,40.90
2023-03-20T00:32:18.291Z,41.20
2023-03-20T00:34:46.660Z,41.30
2023-03-20T00:37:15.590Z,41.60
2023-03-20T00:39:44.016Z,41.60
2023-03-20T00:42:21.303Z,41.60
2023-03-20T00:44:54.841Z,41.50
2023-03-20T00:47:27.233Z,41.70
2023-03-20T00:49:58.112Z,41.80
2023-03-20T00:52:28.695Z,41.80
2023-03-20T00:54:57.075Z,41.70
2023-03-20T00:57:28.773Z,41.60
2023-03-20T01:00:02.363Z,41.60
2023-03-20T01:02:31.674Z,41.60
2023-03-20T01:05:03.634Z,41.80
2023-03-20T01:07:32.065Z,41.80
2023-03-20T01:10:00.601Z,41.90
2023-03-20T01:12:29.215Z,42.10
2023-03-20T01:15:00.111Z,42.00
2023-03-20T01:17:30.495Z,42.10
2023-03-20T01:19:59.230Z,42.10
2023-03-20T01:22:27.774Z,42.40
2023-03-20T01:24:56.134Z,42.50
2023-03-20T01:27:24.627Z,42.40
2023-03-20T01:29:53.100Z,42.30
2023-03-20T01:32:22.828Z,42.30
2023-03-20T01:34:54.739Z,42.30
2023-03-20T01:37:26.810Z,42.90
2023-03-20T01:39:58.447Z,42.30
2023-03-20T01:42:28.833Z,42.50
2023-03-20T01:44:57.566Z,42.50
2023-03-20T01:47:29.860Z,42.60
2023-03-20T01:50:26.331Z,42.60
2023-03-20T01:53:11.734Z,42.50
2023-03-20T01:55:47.926Z,42.60
2023-03-20T01:58:20.926Z,42.80
2023-03-20T02:00:50.083Z,42.90
2023-03-20T02:03:22.170Z,42.70
2023-03-20T02:06:12.581Z,42.70
2023-03-20T02:09:01.185Z,42.90
2023-03-20T02:11:35.505Z,43.20
2023-03-20T02:14:04.604Z,42.90
2023-03-20T02:16:41.759Z,42.80
2023-03-20T02:19:47.989Z,43.00
2023-03-20T02:22:57.844Z,43.00
2023-03-20T02:26:08.229Z,42.80
2023-03-20T02:29:26.735Z,42.90
2023-03-20T02:32:24.314Z,42.80
2023-03-20T02:38:08.803Z,43.10
2023-03-20T02:40:44.125Z,43.10
2023-03-20T02:43:20.519Z,42.90
2023-03-20T02:45:57.905Z,43.10
2023-03-20T02:48:40.402Z,43.20
2023-03-20T02:51:16.282Z,43.20
2023-03-20T02:53:54.014Z,43.40
2023-03-20T02:56:30.167Z,43.50
2023-03-20T02:59:09.155Z,43.60
2023-03-20T03:01:42.254Z,43.50
2023-03-20T03:04:15.471Z,43.50
2023-03-20T03:06:46.626Z,43.50
2023-03-20T03:09:22.762Z,43.80
2023-03-20T03:11:54.891Z,43.70
2023-03-20T03:14:31.549Z,43.80
2023-03-20T03:17:03.526Z,43.90
2023-03-20T03:19:34.862Z,44.30
2023-03-20T03:22:04.255Z,44.30
2023-03-20T03:24:41.392Z,44.50
2023-03-20T03:27:19.696Z,44.20
2023-03-20T03:29:54.190Z,44.10
2023-03-20T03:32:28.478Z,44.20
2023-03-20T03:34:57.803Z,44.70
2023-03-20T03:37:41.908Z,44.10
2023-03-20T03:40:20.732Z,44.00
2023-03-20T03:42:58.214Z,44.00
2023-03-20T03:45:33.798Z,43.90
2023-03-20T03:48:07.043Z,44.10
2023-03-20T03:50:39.771Z,44.90
2023-03-20T03:53:12.425Z,44.30
2023-03-20T03:55:48.148Z,44.40
2023-03-20T03:58:21.515Z,44.40
2023-03-20T04:00:53.144Z,44.40
2023-03-20T04:03:25.313Z,44.30
2023-03-20T04:05:56.886Z,44.30
2023-03-20T04:08:25.426Z,44.50
2023-03-20T04:10:55.108Z,44.40
2023-03-20T04:13:23.490Z,44.50
2023-03-20T04:15:52.229Z,44.50
2023-03-20T04:18:21.224Z,44.40
2023-03-20T04:20:50.177Z,44.40
2023-03-20T04:23:18.558Z,44.50
2023-03-20T04:25:47.203Z,44.50
2023-03-20T04:28:17.427Z,44.50
2023-03-20T04:31:06.355Z,44.60
2023-03-20T04:33:39.390Z,45.10
2023-03-20T04:36:23.160Z,45.40
2023-03-20T04:38:55.816Z,45.40
2023-03-20T04:41:26.692Z,45.10
2023-03-20T04:43:59.554Z,45.00
2023-03-20T04:46:27.958Z,44.90
2023-03-20T04:48:56.572Z,44.90
2023-03-20T04:51:28.541Z,44.90
2023-03-20T04:53:57.004Z,44.80
2023-03-20T04:56:25.568Z,44.90
2023-03-20T04:58:59.966Z,45.00
2023-03-20T05:01:28.438Z,46.00
2023-03-20T05:04:01.046Z,46.50
2023-03-20T05:06:33.291Z,46.40
2023-03-20T05:09:02.416Z,46.00
2023-03-20T05:11:33.028Z,46.20
2023-03-20T05:14:15.461Z,46.00
2023-03-20T05:16:50.053Z,46.20
2023-03-20T05:19:25.828Z,46.20
2023-03-20T05:22:08.833Z,46.00
2023-03-20T05:24:52.266Z,45.90
2023-03-20T05:27:47.874Z,45.80
2023-03-20T05:30:29.728Z,45.90
2023-03-20T05:33:08.468Z,46.30
2023-03-20T05:36:07.578Z,46.10
2023-03-20T05:39:01.958Z,46.10
2023-03-20T05:41:51.284Z,46.30
2023-03-20T05:44:25.583Z,46.30
2023-03-20T05:47:30.472Z,46.20
2023-03-20T05:50:21.155Z,46.10
2023-03-20T06:16:45.605Z,43.90
2023-03-20T06:19:15.592Z,43.40
2023-03-20T06:21:44.638Z,43.50
2023-03-20T06:24:16.745Z,43.40
2023-03-20T06:26:45.502Z,43.40
2023-03-20T06:29:15.625Z,43.30
2023-03-20T06:31:45.678Z,43.40
2023-03-20T06:34:24.232Z,43.60
2023-03-20T06:36:54.005Z,43.70
2023-03-20T06:39:25.242Z,43.70
2023-03-20T06:41:54.528Z,44.00
2023-03-20T06:44:27.086Z,44.00
2023-03-20T06:47:17.348Z,43.80
2023-03-20T06:49:46.455Z,43.80
2023-03-20T06:52:17.688Z,43.60
2023-03-20T06:54:52.333Z,43.60
2023-03-20T06:57:21.194Z,43.40
2023-03-20T06:59:49.505Z,43.40
2023-03-20T07:02:19.233Z,43.30
2023-03-20T07:04:47.919Z,43.40
2023-03-20T07:07:17.315Z,43.10
2023-03-20T07:09:46.402Z,42.70
2023-03-20T07:12:16.970Z,42.50
2023-03-20T07:14:45.790Z,42.00
2023-03-20T07:17:20.626Z,41.70
2023-03-20T07:19:49.108Z,41.50
2023-03-20T07:22:23.186Z,41.20
2023-03-20T07:24:52.952Z,41.10
2023-03-20T07:27:24.523Z,40.80
2023-03-20T07:29:55.944Z,40.20
2023-03-20T07:32:27.122Z,40.00
2023-03-20T07:34:55.863Z,39.50
2023-03-20T07:37:24.477Z,39.00
2023-03-20T07:40:01.275Z,38.20
2023-03-20T07:42:50.272Z,38.10
2023-03-20T07:45:37.971Z,38.00
2023-03-20T07:48:08.442Z,37.50
2023-03-20T07:50:36.976Z,37.30
2023-03-20T07:53:05.762Z,36.80
2023-03-20T07:55:34.447Z,36.30
2023-03-20T07:58:02.954Z,36.30
2023-03-20T08:00:31.774Z,35.90
2023-03-20T08:03:00.355Z,35.50
2023-03-20T08:05:30.350Z,35.20
2023-03-20T08:07:58.948Z,34.70
2023-03-20T08:10:27.493Z,34.30
2023-03-20T08:12:56.042Z,34.10
2023-03-20T08:15:24.662Z,33.90
2023-03-20T08:17:53.172Z,33.70
2023-03-20T08:20:21.894Z,33.30
2023-03-20T08:22:52.593Z,33.10
2023-03-20T08:25:21.195Z,33.20
2023-03-20T08:27:50.856Z,33.00
2023-03-20T08:30:19.407Z,32.90
2023-03-20T08:32:47.801Z,32.90
2023-03-20T08:35:31.839Z,32.70
2023-03-20T08:38:02.680Z,32.70
2023-03-20T08:40:31.448Z,32.30
2023-03-20T08:43:00.421Z,31.70
2023-03-20T08:45:28.848Z,31.40
2023-03-20T08:47:57.290Z,30.90
2023-03-20T08:50:26.154Z,30.40
2023-03-20T08:52:54.508Z,30.10
2023-03-20T08:55:24.290Z,29.90
2023-03-20T08:57:54.745Z,29.60
2023-03-20T09:00:23.832Z,29.40
2023-03-20T09:02:52.614Z,29.30
2023-03-20T09:05:21.019Z,29.10
2023-03-20T09:07:49.725Z,29.00
2023-03-20T09:10:18.497Z,28.80
2023-03-20T09:12:48.240Z,28.70
2023-03-20T09:15:16.693Z,28.60
2023-03-20T09:17:45.480Z,28.60
2023-03-20T09:20:13.933Z,28.70
2023-03-20T09:22:43.937Z,28.40
2023-03-20T09:25:12.576Z,28.10
2023-03-20T09:27:41.519Z,28.00
2023-03-20T09:30:12.696Z,27.90
2023-03-20T09:32:41.284Z,27.80
2023-03-20T09:35:10.180Z,27.50
2023-03-20T09:37:38.677Z,27.30
2023-03-20T09:40:08.263Z,27.10
2023-03-20T09:42:48.720Z,27.10
2023-03-20T09:45:28.336Z,26.90
2023-03-20T09:48:05.503Z,26.50
2023-03-20T09:50:39.182Z,26.40
2023-03-20T09:53:14.301Z,26.30
2023-03-20T09:55:44.808Z,26.40
2023-03-20T09:58:18.234Z,26.30
2023-03-20T10:00:48.617Z,26.20
2023-03-20T10:03:23.614Z,26.00
2023-03-20T10:05:58.993Z,25.90
2023-03-20T10:08:31.947Z,25.90
2023-03-20T10:11:17.192Z,25.60
2023-03-20T10:14:08.532Z,25.50
2023-03-20T10:16:49.797Z,25.10
2023-03-20T10:19:24.505Z,24.80
2023-03-20T10:21:59.020Z,24.80
2023-03-20T10:24:33.361Z,24.60
2023-03-20T10:27:07.517Z,24.50
2023-03-20T10:29:48.897Z,24.20
2023-03-20T10:32:25.118Z,24.10
2023-03-20T10:35:10.232Z,23.90
2023-03-20T10:37:54.613Z,23.80
2023-03-20T10:40:30.280Z,24.00
2023-03-20T10:43:02.655Z,23.90
2023-03-20T10:45:36.793Z,23.60
2023-03-20T10:48:16.160Z,23.40
2023-03-20T10:50:49.153Z,23.20
2023-03-20T10:53:31.500Z,23.00
2023-03-20T10:56:04.239Z,22.90
2023-03-20T10:58:36.584Z,23.00
2023-03-20T11:01:05.300Z,22.80
2023-03-20T11:03:39.855Z,22.70
2023-03-20T11:06:16.079Z,22.60
2023-03-20T11:08:49.600Z,22.50
2023-03-20T11:11:24.486Z,22.40
2023-03-20T11:13:53.391Z,22.20
2023-03-20T11:16:24.878Z,22.30
2023-03-20T11:18:55.341Z,22.50
2023-03-20T11:21:26.349Z,22.40
2023-03-20T11:23:55.302Z,22.30
2023-03-20T11:26:37.187Z,22.10
2023-03-20T11:29:10.054Z,21.90
2023-03-20T11:31:40.893Z,21.90
2023-03-20T11:34:26.806Z,21.70
2023-03-20T11:37:09.797Z,21.70
2023-03-20T11:39:41.339Z,21.70
2023-03-20T11:42:25.688Z,21.70
2023-03-20T11:45:02.647Z,21.60
2023-03-20T11:47:35.220Z,21.50
2023-03-20T11:50:08.130Z,21.60
2023-03-20T11:52:40.725Z,21.50
2023-03-20T11:55:25.848Z,21.50
2023-03-20T11:57:58.768Z,21.50
2023-03-20T12:00:30.793Z,21.50
2023-03-20T12:02:59.249Z,21.70
2023-03-20T12:05:35.507Z,21.90
2023-03-20T12:08:08.380Z,22.00
2023-03-20T12:10:40.685Z,22.20
2023-03-20T12:13:18.539Z,22.30
2023-03-20T12:15:49.212Z,22.40
2023-03-20T12:18:24.065Z,22.50
2023-03-20T12:21:03.687Z,22.60
2023-03-20T12:23:36.005Z,22.30
2023-03-20T12:26:08.436Z,22.30
2023-03-20T12:28:41.916Z,22.40
2023-03-20T12:31:22.069Z,22.70
2023-03-20T12:33:55.948Z,22.70
2023-03-20T12:36:33.230Z,22.80
2023-03-20T12:39:03.879Z,23.00
2023-03-20T12:41:41.528Z,23.20
2023-03-20T12:44:22.474Z,23.50
2023-03-20T12:47:00.972Z,23.50
2023-03-20T12:49:41.221Z,23.40
2023-03-20T12:52:22.428Z,23.20
2023-03-20T12:55:14.080Z,23.10
2023-03-20T12:57:52.050Z,23.30
2023-03-20T13:00:26.138Z,23.20
2023-03-20T13:03:17.593Z,23.10
2023-03-20T13:05:51.405Z,23.20
2023-03-20T13:08:54.428Z,23.30
2023-03-20T13:11:30.426Z,24.00
2023-03-20T13:14:04.317Z,24.40
2023-03-20T13:16:43.793Z,24.80
2023-03-20T13:19:18.072Z,25.20
2023-03-20T13:21:56.731Z,25.50
2023-03-20T13:24:38.271Z,25.60
2023-03-20T13:27:21.197Z,25.60
2023-03-20T13:29:54.899Z,25.20
2023-03-20T13:32:33.049Z,25.20
2023-03-20T13:35:14.076Z,25.40
2023-03-20T13:37:45.490Z,25.40
2023-03-20T13:40:21.929Z,25.40
2023-03-20T13:42:56.669Z,25.20
2023-03-20T13:45:38.834Z,24.80
2023-03-20T13:48:23.077Z,24.50
2023-03-20T13:51:02.044Z,24.50
2023-03-20T13:53:36.475Z,24.30
2023-03-20T13:56:17.783Z,24.00
2023-03-20T13:58:59.050Z,23.70
2023-03-20T14:01:36.117Z,23.70
2023-03-20T14:04:05.922Z,23.80
2023-03-20T14:06:55.492Z,23.60
2023-03-20T14:09:33.154Z,23.70
2023-03-20T14:12:08.743Z,24.00
2023-03-20T14:14:44.411Z,24.20
2023-03-20T14:17:19.183Z,23.80
2023-03-20T14:19:48.120Z,23.50
2023-03-20T14:22:19.761Z,23.40
2023-03-20T14:24:59.715Z,23.50
2023-03-20T14:27:44.565Z,23.60
2023-03-20T14:30:41.967Z,23.60
2023-03-20T14:33:27.145Z,23.40
2023-03-20T14:36:18.911Z,23.40
2023-03-20T14:38:55.121Z,23.40
2023-03-20T14:41:31.603Z,23.30
2023-03-20T14:44:16.541Z,23.10
2023-03-20T14:46:52.492Z,23.10
2023-03-20T14:49:50.342Z,23.10
2023-03-20T14:52:34.868Z,22.80
2023-03-20T14:55:30.439Z,22.90
2023-03-20T14:58:03.285Z,22.90
2023-03-20T15:00:37.672Z,23.10
2023-03-20T15:03:10.317Z,23.20
2023-03-20T15:05:40.737Z,23.20
2023-03-20T15:08:12.332Z,23.40
2023-03-20T15:10:54.647Z,23.60
2023-03-20T15:13:24.752Z,24.10
2023-03-20T15:15:57.103Z,24.40
2023-03-20T15:18:27.655Z,24.90
2023-03-20T15:20:58.638Z,25.50
2023-03-20T15:23:27.256Z,25.80
2023-03-20T15:25:55.986Z,26.40
2023-03-20T15:28:26.414Z,27.00
2023-03-20T15:30:59.304Z,27.30
2023-03-20T15:33:30.390Z,27.50
2023-03-20T15:35:59.356Z,28.00
2023-03-20T15:38:34.569Z,28.30
2023-03-20T15:41:06.747Z,28.60
2023-03-20T15:43:38.187Z,29.40
2023-03-20T15:46:18.298Z,29.40
2023-03-20T15:48:50.484Z,29.70
2023-03-20T15:51:23.872Z,30.00
2023-03-20T15:53:52.374Z,30.20
2023-03-20T15:56:25.817Z,30.30
2023-03-20T15:58:56.736Z,30.50
2023-03-20T16:01:27.782Z,30.60
2023-03-20T16:04:00.549Z,31.10
2023-03-20T16:06:29.473Z,31.20
2023-03-20T16:09:00.760Z,31.30
2023-03-20T16:11:39.097Z,31.40
2023-03-20T16:14:10.699Z,31.60
2023-03-20T16:16:41.133Z,31.70
2023-03-20T16:19:13.244Z,31.90
2023-03-20T16:21:45.781Z,32.00
2023-03-20T16:24:21.264Z,32.20
2023-03-20T16:26:52.357Z,32.20
2023-03-20T16:29:22.623Z,32.30
2023-03-20T16:32:06.928Z,32.50
2023-03-20T16:34:37.422Z,32.70
2023-03-20T16:37:10.302Z,32.80
2023-03-20T16:39:38.809Z,33.00
2023-03-20T16:42:24.882Z,33.20
2023-03-20T16:44:56.736Z,33.30
2023-03-20T16:47:35.319Z,33.50
2023-03-20T16:50:13.786Z,33.70
2023-03-20T16:52:45.784Z,33.90
2023-03-20T16:55:18.623Z,34.00
2023-03-20T16:57:49.725Z,34.40
2023-03-20T17:00:26.034Z,34.60
2023-03-20T17:03:06.983Z,34.80
2023-03-20T17:05:54.571Z,34.70
2023-03-20T17:08:32.433Z,34.90
2023-03-20T17:11:06.764Z,35.10
2023-03-20T17:13:35.075Z,35.30
2023-03-20T17:16:03.630Z,35.40
2023-03-20T17:18:39.287Z,35.50
2023-03-20T17:21:08.132Z,35.50
2023-03-20T17:23:36.661Z,35.80
2023-03-20T17:26:05.231Z,36.20
2023-03-20T17:28:37.189Z,36.30
2023-03-20T17:31:06.444Z,36.50
2023-03-20T17:33:36.761Z,36.70
2023-03-20T17:36:06.531Z,36.80
2023-03-20T17:38:34.980Z,37.00
2023-03-20T17:41:03.326Z,37.20
2023-03-20T17:43:31.774Z,37.50
2023-03-20T17:46:00.518Z,37.70
2023-03-20T17:48:28.964Z,37.90
2023-03-20T17:50:58.723Z,38.00
2023-03-20T17:53:29.856Z,38.10
2023-03-20T17:55:58.254Z,38.30
2023-03-20T17:58:26.797Z,38.50
2023-03-20T18:00:56.685Z,38.60
2023-03-20T18:03:28.280Z,38.70
2023-03-20T18:05:58.044Z,38.80
2023-03-20T18:08:26.422Z,39.00
2023-03-20T18:10:55.385Z,39.20
2023-03-20T18:13:26.455Z,39.30
2023-03-20T18:15:58.066Z,39.30
2023-03-20T18:18:26.877Z,39.50
2023-03-20T18:20:57.460Z,39.60
2023-03-20T18:23:27.255Z,39.70
2023-03-20T18:25:55.908Z,39.80
2023-03-20T18:28:24.616Z,39.80
2023-03-20T18:30:53.077Z,39.90
2023-03-20T18:33:26.702Z,40.40
2023-03-20T18:35:55.451Z,40.20
2023-03-20T18:38:25.803Z,40.30
2023-03-20T18:40:55.750Z,41.00
2023-03-20T18:43:24.102Z,40.40
2023-03-20T18:45:52.468Z,40.60
2023-03-20T18:48:21.285Z,40.70
2023-03-20T18:50:51.170Z,40.90
2023-03-20T18:53:20.014Z,41.10
2023-03-20T18:55:48.458Z,41.30
2023-03-20T18:58:23.720Z,41.50
2023-03-20T19:00:54.036Z,41.80
2023-03-20T19:03:24.624Z,41.90
2023-03-20T19:05:53.256Z,42.00
2023-03-20T19:08:22.250Z,42.20
2023-03-20T19:10:51.532Z,42.50
2023-03-20T19:13:22.619Z,42.50
2023-03-20T19:15:51.049Z,42.90
2023-03-20T19:18:24.369Z,42.90
2023-03-20T19:20:55.481Z,43.10
2023-03-20T19:23:26.176Z,43.30
2023-03-20T19:25:56.560Z,43.50
2023-03-20T19:28:38.712Z,43.70
2023-03-20T19:31:09.881Z,43.90
2023-03-20T19:33:39.494Z,43.90
2023-03-20T19:36:09.053Z,43.80
2023-03-20T19:38:38.863Z,43.70
2023-03-20T19:41:08.854Z,43.70
2023-03-20T19:43:51.827Z,43.80
2023-03-20T19:46:38.010Z,43.80
2023-03-20T19:49:07.772Z,44.00
2023-03-20T19:51:36.262Z,44.10
2023-03-20T19:54:04.665Z,44.00
2023-03-20T19:56:34.594Z,43.90
2023-03-20T19:59:05.872Z,43.90
2023-03-20T20:01:34.556Z,44.00
2023-03-20T20:04:03.013Z,43.90
2023-03-20T20:06:33.049Z,44.00
2023-03-20T20:09:03.270Z,44.00
2023-03-20T20:11:31.696Z,44.10
2023-03-20T20:14:09.381Z,44.80
2023-03-20T20:16:42.641Z,44.20
2023-03-20T20:19:11.533Z,44.30
2023-03-20T20:24:29.216Z,44.20
2023-03-20T20:27:18.356Z,44.30
2023-03-20T20:29:49.197Z,44.40
2023-03-20T20:32:21.753Z,44.50
2023-03-20T20:38:27.160Z,44.60
2023-03-20T20:40:31.121Z,44.70
2023-03-20T20:43:02.511Z,44.90
2023-03-20T20:45:32.472Z,45.00
2023-03-20T20:48:03.880Z,45.00
2023-03-20T20:50:35.960Z,45.30
2023-03-20T20:53:05.268Z,45.30
2023-03-20T20:55:33.712Z,45.50
2023-03-20T20:58:04.004Z,45.70
2023-03-20T21:00:47.944Z,45.80
2023-03-20T21:03:19.952Z,45.80
2023-03-20T21:05:48.369Z,45.80
2023-03-20T21:08:18.689Z,45.80
2023-03-20T21:10:47.482Z,45.90
2023-03-20T21:13:16.491Z,46.00
2023-03-20T21:15:45.892Z,46.00
2023-03-20T21:18:14.643Z,46.10
2023-03-20T21:20:44.306Z,46.10
2023-03-20T21:23:12.677Z,46.20
2023-03-20T21:25:44.266Z,46.10
2023-03-20T21:28:14.268Z,46.20
2023-03-20T21:30:59.958Z,46.30
2023-03-20T21:33:31.394Z,46.40
2023-03-20T21:36:04.613Z,46.60
2023-03-20T21:41:22.928Z,46.90
2023-03-20T21:43:51.665Z,46.90
2023-03-20T22:01:14.550Z,47.80
2023-03-20T22:03:28.966Z,47.90
2023-03-20T22:09:54.702Z,48.10
2023-03-20T22:12:23.146Z,48.30
2023-03-20T22:23:51.578Z,48.60
2023-03-20T22:32:10.771Z,48.90
2023-03-20T22:34:58.428Z,49.00
2023-03-20T22:40:48.558Z,49.20
2023-03-20T22:43:20.773Z,49.30
2023-03-20T22:45:43.013Z,49.30
2023-03-20T22:48:15.937Z,49.30
2023-03-20T22:50:44.194Z,49.40
2023-03-20T22:53:12.512Z,49.50
2023-03-20T22:55:44.120Z,49.70
2023-03-20T22:58:15.415Z,50.00
2023-03-20T23:00:44.076Z,50.10
2023-03-20T23:03:25.775Z,50.20
2023-03-20T23:05:58.318Z,50.50
2023-03-20T23:08:27.965Z,50.70
2023-03-20T23:10:56.537Z,50.70
2023-03-20T23:13:26.320Z,50.80
2023-03-20T23:15:54.789Z,50.90
2023-03-20T23:18:23.175Z,50.90
2023-03-20T23:20:51.560Z,51.00
2023-03-20T23:23:20.010Z,51.10
2023-03-20T23:25:48.573Z,51.20
2023-03-20T23:28:16.980Z,51.30
2023-03-20T23:30:56.667Z,51.30
2023-03-20T23:33:35.030Z,51.30
2023-03-20T23:36:16.187Z,51.40
2023-03-20T23:38:50.465Z,51.50
2023-03-20T23:41:19.126Z,51.40
2023-03-20T23:43:47.670Z,51.50
2023-03-20T23:46:17.642Z,51.50
2023-03-20T23:48:46.250Z,51.70
2023-03-20T23:51:14.677Z,51.60
2023-03-20T23:53:43.086Z,51.80
2023-03-20T23:56:13.410Z,51.80
2023-03-20T23:58:51.152Z,51.80
